Stacja Pogody Warszawa Praga Północ 


Stacja Pogody
Warszawa Praga Północ

 Szerokość N 52° 15 '43"    Długość E 21° 01' 22"    Wysokość 89 m n.p.m.


Wschód Słońca 05:31 Górowanie Słońca 12:35 Zachód Słońca 19:39 baran
Data juliańska 2456767.818 Odległość Słońca 150233132 km Średn. kątowa Słońca 0,319°
Wschód Księżyca 00:00 Zachód Księżyca 08:14 Wiek Księżyca 19 dni Moon
Widoczność Księżyca 81,52% Odległość Księżyca 369346 km Średn. kątowa Księżyca 0,324°
Dzień krótszy od najdłuższego o: 02:37 Długość dnia 14:08 Imieniny Adolfa, Tymona, Leona




Warunki pogodowe uaktualnione 19-04-2014, o godzinie 07:34
Temperatura 12.4 °C ↑ Temperatura odczuwalna 11.5 °C
Punkt rosy 10.1 °C Humidex 13.7 °C
Deszcz na godzinę 0.0 mm Wilgotność względna 86% ↓
Prędkość wiatru (średnia) 1 km/h → Prędkość wiatru (podmuch) 5 km/h
Kierunek wiatru SSE Skala Beaufort'a 1
Ciśnienie względne  1016 hPa Trend ciśnienia powolny wzrost
Ciśnienie bezwzględne  1004 hPa Podstawa chmur 367.8 m
METAR EPWA 190530Z 06010KT CAVOK 12/09 Q1016 NOSIG
TAF TAF EPWA 190530Z 1906/2006 06008KT CAVOK





 a

Valid XHTML 1.0 Transitional Valid CSS!